Time;durP1;ratioP1;P1;durP2;ratioP2;P2;SDS_P1;SDS_P2;PMS_P1;PMS_P2;Temp;Humidity;BMP_temperature;BMP_pressure;BME280_temperature;BME280_humidity;BME280_pressure;Samples;Min_cycle;Max_cycle;Signal;HPM_P1;HPM_P2
2023/08/20 00:02:11;;;;;;;6.80;2.67;;;;;;;;;;4990428;28;99051;-72
2023/08/20 00:04:37;;;;;;;9.93;2.67;;;;;;;;;;4988595;28;98272;-72
2023/08/20 00:07:04;;;;;;;11.00;4.47;;;;;;;;;;4990289;28;99225;-72
2023/08/20 00:09:30;;;;;;;8.70;3.40;;;;;;;;;;5009174;28;99027;-72
2023/08/20 00:12:00;;;;;;;6.15;2.90;;;;;;;;;;5012119;28;98141;-72
2023/08/20 00:14:45;;;;;;;11.02;3.60;;;;;;;;;;5009527;28;99923;-72
2023/08/20 00:17:11;;;;;;;4.15;2.15;;;;;;;;;;5009236;28;98803;-71
2023/08/20 00:19:38;;;;;;;9.40;3.00;;;;;;;;;;4992057;28;98642;-72
2023/08/20 00:22:04;;;;;;;4.55;2.08;;;;;;;;;;4989358;28;99337;-71
2023/08/20 00:24:31;;;;;;;6.30;2.58;;;;;;;;;;4991917;28;98951;-71
2023/08/20 00:26:57;;;;;;;12.70;2.53;;;;;;;;;;5009892;28;98657;-71
2023/08/20 00:29:24;;;;;;;6.90;3.00;;;;;;;;;;5008170;28;99487;-71
2023/08/20 00:31:50;;;;;;;8.70;3.33;;;;;;;;;;5008182;28;98556;-72
2023/08/20 00:34:16;;;;;;;6.90;2.50;;;;;;;;;;5012583;28;98581;-72
2023/08/20 00:36:43;;;;;;;7.60;2.95;;;;;;;;;;4979163;28;98381;-71
2023/08/20 00:39:09;;;;;;;7.10;2.50;;;;;;;;;;5007665;28;100970;-72
2023/08/20 00:41:37;;;;;;;10.73;2.40;;;;;;;;;;5004117;28;99278;-72
2023/08/20 00:44:03;;;;;;;8.60;2.65;;;;;;;;;;4988447;28;98210;-73
2023/08/20 00:46:30;;;;;;;5.88;2.50;;;;;;;;;;4986170;28;98795;-71
2023/08/20 00:48:57;;;;;;;4.05;2.63;;;;;;;;;;4982201;28;98911;-72
2023/08/20 00:51:24;;;;;;;7.25;2.60;;;;;;;;;;4988837;28;98324;-71
2023/08/20 00:53:51;;;;;;;10.23;2.70;;;;;;;;;;4988636;28;98330;-71
2023/08/20 00:56:18;;;;;;;6.90;2.45;;;;;;;;;;4991753;28;98244;-71
2023/08/20 00:58:44;;;;;;;7.50;3.13;;;;;;;;;;4994279;28;99449;-72
2023/08/20 01:01:12;;;;;;;7.43;2.65;;;;;;;;;;5006888;28;100930;-72
2023/08/20 01:03:39;;;;;;;3.03;2.83;;;;;;;;;;5009557;28;97898;-72
2023/08/20 01:06:25;;;;;;;7.95;2.92;;;;;;;;;;5008928;28;98520;-72
2023/08/20 01:08:57;;;;;;;8.57;3.08;;;;;;;;;;5000741;28;99116;-72
2023/08/20 01:11:29;;;;;;;7.75;3.67;;;;;;;;;;5008272;28;98478;-71
2023/08/20 01:13:55;;;;;;;7.40;2.85;;;;;;;;;;5007730;28;98475;-71
2023/08/20 01:16:22;;;;;;;4.78;2.80;;;;;;;;;;5011626;28;98792;-72
2023/08/20 01:18:48;;;;;;;9.10;2.70;;;;;;;;;;5000001;28;100805;-71
2023/08/20 01:21:29;;;;;;;5.82;2.97;;;;;;;;;;4991564;28;99132;-71
2023/08/20 01:24:02;;;;;;;5.55;2.83;;;;;;;;;;4993162;28;98780;-72
2023/08/20 01:26:28;;;;;;;8.45;3.17;;;;;;;;;;4992479;28;99579;-73
2023/08/20 01:28:56;;;;;;;8.15;3.75;;;;;;;;;;4991858;28;98792;-71
2023/08/20 01:31:23;;;;;;;8.68;2.88;;;;;;;;;;4992927;28;98332;-72
2023/08/20 01:33:54;;;;;;;9.50;3.08;;;;;;;;;;4993110;28;99343;-71
2023/08/20 01:36:24;;;;;;;8.32;2.50;;;;;;;;;;4991746;28;102983;-71
2023/08/20 01:38:51;;;;;;;7.70;3.03;;;;;;;;;;5014754;28;98282;-72
2023/08/20 01:41:17;;;;;;;4.20;2.42;;;;;;;;;;5011156;28;98836;-71
2023/08/20 01:43:44;;;;;;;8.95;2.60;;;;;;;;;;4995212;28;98210;-71
2023/08/20 01:46:10;;;;;;;9.65;2.53;;;;;;;;;;4992531;28;98974;-71
2023/08/20 01:48:37;;;;;;;9.35;3.10;;;;;;;;;;4989616;28;98960;-73
2023/08/20 01:51:04;;;;;;;10.93;2.53;;;;;;;;;;4995827;28;98202;-72
2023/08/20 01:53:30;;;;;;;7.88;2.38;;;;;;;;;;4991938;28;99401;-71
2023/08/20 01:55:56;;;;;;;9.25;2.53;;;;;;;;;;4991534;28;98863;-72
2023/08/20 01:58:24;;;;;;;3.22;2.72;;;;;;;;;;4990817;28;98245;-72
2023/08/20 02:01:00;;;;;;;10.07;3.00;;;;;;;;;;4996587;28;100320;-72
2023/08/20 02:03:29;;;;;;;3.85;2.50;;;;;;;;;;4990429;28;98444;-71
2023/08/20 02:05:56;;;;;;;9.45;2.42;;;;;;;;;;4990790;28;99418;-71
2023/08/20 02:08:22;;;;;;;6.90;2.13;;;;;;;;;;5010070;28;98725;-72
2023/08/20 02:10:49;;;;;;;4.55;2.30;;;;;;;;;;5010114;28;98233;-72
2023/08/20 02:13:18;;;;;;;8.63;2.70;;;;;;;;;;5010504;28;98538;-72
2023/08/20 02:15:59;;;;;;;5.28;2.80;;;;;;;;;;5009268;28;100844;-71
2023/08/20 02:18:29;;;;;;;5.93;2.65;;;;;;;;;;4999327;28;98178;-71
2023/08/20 02:20:57;;;;;;;8.07;3.10;;;;;;;;;;4989146;28;98702;-72
2023/08/20 02:23:23;;;;;;;7.40;2.80;;;;;;;;;;4995113;28;98929;-72
2023/08/20 02:25:50;;;;;;;8.00;2.85;;;;;;;;;;5010940;28;98245;-72
2023/08/20 02:28:20;;;;;;;5.95;2.75;;;;;;;;;;5009250;28;98962;-72
2023/08/20 02:30:47;;;;;;;7.45;3.22;;;;;;;;;;5009803;28;98242;-72
2023/08/20 02:33:13;;;;;;;8.35;2.50;;;;;;;;;;5008987;28;100049;-72
2023/08/20 02:35:40;;;;;;;4.97;2.65;;;;;;;;;;5009996;28;98762;-71
2023/08/20 02:38:07;;;;;;;8.57;2.78;;;;;;;;;;4994443;28;99383;-71
2023/08/20 02:40:38;;;;;;;6.70;3.15;;;;;;;;;;4993789;28;98286;-71
2023/08/20 02:43:05;;;;;;;6.93;3.03;;;;;;;;;;5008806;28;101727;-72
2023/08/20 02:45:32;;;;;;;2.72;2.42;;;;;;;;;;5012698;28;98190;-73
2023/08/20 02:47:59;;;;;;;4.03;2.85;;;;;;;;;;5004399;28;99088;-72
2023/08/20 02:50:26;;;;;;;5.97;2.75;;;;;;;;;;4990068;28;98173;-73
2023/08/20 02:52:52;;;;;;;3.55;3.15;;;;;;;;;;4987337;28;101068;-71
2023/08/20 02:55:18;;;;;;;6.60;3.58;;;;;;;;;;4989604;28;98625;-71
2023/08/20 02:57:45;;;;;;;6.63;3.25;;;;;;;;;;4993959;28;98273;-72
2023/08/20 03:00:13;;;;;;;7.30;3.58;;;;;;;;;;5007760;28;100052;-72
2023/08/20 03:02:41;;;;;;;8.45;3.88;;;;;;;;;;5008017;28;100915;-72
2023/08/20 03:05:09;;;;;;;10.73;4.72;;;;;;;;;;5011918;28;98350;-72
2023/08/20 03:07:36;;;;;;;9.35;4.05;;;;;;;;;;5007388;28;101751;-71
2023/08/20 03:10:02;;;;;;;7.20;4.18;;;;;;;;;;4967522;28;1174723;-72
2023/08/20 03:12:29;;;;;;;10.38;3.97;;;;;;;;;;5009079;28;99563;-72
2023/08/20 03:14:56;;;;;;;6.65;3.78;;;;;;;;;;5010063;28;99317;-72
2023/08/20 03:17:22;;;;;;;5.78;3.70;;;;;;;;;;5006080;28;98171;-72
2023/08/20 03:19:56;;;;;;;6.95;3.53;;;;;;;;;;4988914;28;101394;-70
2023/08/20 03:22:23;;;;;;;8.35;3.97;;;;;;;;;;4988977;28;99980;-72
2023/08/20 03:24:49;;;;;;;7.30;4.75;;;;;;;;;;4991116;28;98828;-70
2023/08/20 03:27:16;;;;;;;8.75;4.18;;;;;;;;;;4992961;28;99429;-73
2023/08/20 03:29:43;;;;;;;8.25;4.40;;;;;;;;;;4989846;28;98345;-72
2023/08/20 03:32:10;;;;;;;8.77;4.18;;;;;;;;;;4990310;28;100467;-72
2023/08/20 03:34:36;;;;;;;5.10;4.63;;;;;;;;;;4990181;28;100107;-72
2023/08/20 03:37:03;;;;;;;7.90;4.00;;;;;;;;;;4977401;28;98246;-72
2023/08/20 03:39:31;;;;;;;6.13;4.28;;;;;;;;;;4975096;28;98350;-72
2023/08/20 03:41:59;;;;;;;6.22;4.72;;;;;;;;;;4974220;28;101387;-72
2023/08/20 03:44:25;;;;;;;9.50;3.90;;;;;;;;;;4975404;28;98160;-72
2023/08/20 03:46:52;;;;;;;9.25;4.53;;;;;;;;;;4969064;28;100353;-72
2023/08/20 03:49:18;;;;;;;6.72;4.40;;;;;;;;;;4991196;28;102015;-71
2023/08/20 03:51:45;;;;;;;9.40;4.88;;;;;;;;;;4989058;28;99668;-72
2023/08/20 03:54:11;;;;;;;10.48;4.10;;;;;;;;;;4988576;28;99447;-71
2023/08/20 03:56:38;;;;;;;7.80;3.80;;;;;;;;;;4989805;28;98243;-71
2023/08/20 03:59:04;;;;;;;8.05;5.10;;;;;;;;;;4988906;28;101545;-72
2023/08/20 04:01:31;;;;;;;6.45;3.83;;;;;;;;;;4989908;28;100451;-71
2023/08/20 04:03:57;;;;;;;8.88;3.90;;;;;;;;;;4989508;28;98263;-72
2023/08/20 04:06:24;;;;;;;4.75;3.88;;;;;;;;;;4988221;28;100210;-72
2023/08/20 04:08:51;;;;;;;10.65;4.38;;;;;;;;;;4989385;28;99202;-71
2023/08/20 04:11:19;;;;;;;9.43;4.15;;;;;;;;;;4991466;28;98416;-72
2023/08/20 04:13:45;;;;;;;4.60;3.35;;;;;;;;;;4989814;28;98740;-72
2023/08/20 04:16:12;;;;;;;9.95;4.65;;;;;;;;;;4988893;28;98184;-71
2023/08/20 04:18:39;;;;;;;10.57;3.95;;;;;;;;;;4988220;28;99055;-72
2023/08/20 04:21:06;;;;;;;8.20;3.83;;;;;;;;;;4988097;28;100960;-71
2023/08/20 04:23:36;;;;;;;10.50;4.30;;;;;;;;;;5000560;28;98163;-72
2023/08/20 04:26:03;;;;;;;5.35;3.38;;;;;;;;;;5009745;28;98570;-72
2023/08/20 04:28:31;;;;;;;9.35;3.90;;;;;;;;;;5008109;28;99994;-71
2023/08/20 04:31:00;;;;;;;5.43;3.75;;;;;;;;;;5006733;28;98262;-72
2023/08/20 04:33:36;;;;;;;11.35;4.43;;;;;;;;;;5011156;28;99580;-72
2023/08/20 04:36:03;;;;;;;6.78;4.25;;;;;;;;;;5008341;28;98328;-71
2023/08/20 04:38:38;;;;;;;8.75;4.18;;;;;;;;;;5007089;28;101764;-73
2023/08/20 04:41:05;;;;;;;5.97;3.83;;;;;;;;;;4991354;28;99213;-71
2023/08/20 04:43:31;;;;;;;6.05;3.50;;;;;;;;;;4987791;28;98309;-72
2023/08/20 04:45:59;;;;;;;10.18;3.95;;;;;;;;;;4987620;28;100483;-72
2023/08/20 04:48:32;;;;;;;8.38;4.30;;;;;;;;;;4987673;28;101806;-72
2023/08/20 04:51:01;;;;;;;9.45;4.05;;;;;;;;;;4987264;28;98676;-71
2023/08/20 04:53:27;;;;;;;5.22;3.55;;;;;;;;;;4987822;28;101166;-70
2023/08/20 04:55:54;;;;;;;4.10;3.75;;;;;;;;;;4991455;28;101731;-71
2023/08/20 04:58:21;;;;;;;9.68;4.15;;;;;;;;;;5005574;28;100782;-71
2023/08/20 05:00:48;;;;;;;5.38;3.35;;;;;;;;;;5007744;28;99341;-71
2023/08/20 05:03:15;;;;;;;8.68;3.75;;;;;;;;;;5007822;28;98153;-72
2023/08/20 05:05:42;;;;;;;7.68;3.85;;;;;;;;;;5006992;28;101093;-72
2023/08/20 05:08:08;;;;;;;9.00;4.30;;;;;;;;;;5007634;28;101353;-72
2023/08/20 05:10:36;;;;;;;9.07;3.60;;;;;;;;;;5008580;28;98187;-72
2023/08/20 05:13:05;;;;;;;8.55;4.72;;;;;;;;;;5007441;27;100435;-71
2023/08/20 05:15:33;;;;;;;8.27;4.10;;;;;;;;;;4970777;28;100933;-71
2023/08/20 05:18:00;;;;;;;5.82;3.67;;;;;;;;;;4979856;28;100215;-71
2023/08/20 05:20:27;;;;;;;7.70;4.30;;;;;;;;;;4985695;28;99905;-72
2023/08/20 05:22:54;;;;;;;6.70;3.80;;;;;;;;;;4989428;28;98184;-71
2023/08/20 05:25:20;;;;;;;4.65;4.07;;;;;;;;;;4988852;28;98749;-71
2023/08/20 05:27:49;;;;;;;11.00;5.25;;;;;;;;;;4987069;28;98870;-72
2023/08/20 05:30:15;;;;;;;4.68;3.78;;;;;;;;;;4988590;28;98669;-72
2023/08/20 05:32:42;;;;;;;11.10;4.53;;;;;;;;;;5007719;28;98534;-72
2023/08/20 05:35:08;;;;;;;7.45;4.32;;;;;;;;;;5006584;28;101582;-72
2023/08/20 05:37:36;;;;;;;8.00;4.28;;;;;;;;;;5006680;28;98096;-72
2023/08/20 05:40:03;;;;;;;11.18;5.25;;;;;;;;;;5007355;28;100153;-72
2023/08/20 05:42:32;;;;;;;10.30;5.68;;;;;;;;;;5006356;28;98794;-72
2023/08/20 05:45:02;;;;;;;9.90;5.25;;;;;;;;;;5006758;28;101288;-72
2023/08/20 05:47:29;;;;;;;13.85;5.47;;;;;;;;;;5002905;28;98712;-72
2023/08/20 05:49:56;;;;;;;7.03;4.80;;;;;;;;;;5007394;28;98301;-72
2023/08/20 05:52:22;;;;;;;7.85;4.78;;;;;;;;;;5007013;28;100499;-72
2023/08/20 05:54:56;;;;;;;9.55;4.78;;;;;;;;;;5006406;28;101520;-71
2023/08/20 05:57:22;;;;;;;11.45;4.50;;;;;;;;;;5008336;28;98191;-72
2023/08/20 05:59:50;;;;;;;9.43;4.53;;;;;;;;;;5011476;28;98699;-72
2023/08/20 06:02:20;;;;;;;9.23;4.78;;;;;;;;;;5006711;28;98196;-72
2023/08/20 06:04:46;;;;;;;8.32;3.67;;;;;;;;;;5009704;28;100963;-72
2023/08/20 06:07:13;;;;;;;10.80;4.15;;;;;;;;;;5011297;28;100156;-71
2023/08/20 06:09:39;;;;;;;6.55;3.50;;;;;;;;;;5009953;28;98347;-71
2023/08/20 06:12:06;;;;;;;8.30;4.13;;;;;;;;;;5011823;28;99710;-71
2023/08/20 06:14:36;;;;;;;6.18;3.30;;;;;;;;;;5010862;28;100762;-71
2023/08/20 06:17:02;;;;;;;11.88;2.88;;;;;;;;;;4994759;28;98087;-71
2023/08/20 06:19:29;;;;;;;6.13;2.88;;;;;;;;;;4991456;28;99426;-72
2023/08/20 06:21:55;;;;;;;11.63;3.65;;;;;;;;;;4995408;28;100029;-72
2023/08/20 06:24:22;;;;;;;12.95;4.18;;;;;;;;;;4990923;28;99419;-73
2023/08/20 06:26:48;;;;;;;10.63;3.20;;;;;;;;;;4991618;28;99153;-72
2023/08/20 06:29:15;;;;;;;11.60;2.65;;;;;;;;;;4991335;28;98201;-71
2023/08/20 06:31:41;;;;;;;9.98;2.97;;;;;;;;;;4991065;28;99359;-71
2023/08/20 06:34:07;;;;;;;8.02;3.53;;;;;;;;;;4990407;28;98959;-71
2023/08/20 06:36:34;;;;;;;12.57;2.92;;;;;;;;;;4992597;28;98557;-72
2023/08/20 06:39:00;;;;;;;9.25;3.00;;;;;;;;;;5003437;28;99714;-72
2023/08/20 06:41:27;;;;;;;11.82;2.92;;;;;;;;;;4990875;28;99890;-71
2023/08/20 06:43:53;;;;;;;5.03;2.22;;;;;;;;;;4993860;28;98165;-73
2023/08/20 06:46:20;;;;;;;4.07;2.13;;;;;;;;;;4990354;28;99027;-72
2023/08/20 06:48:46;;;;;;;8.82;2.80;;;;;;;;;;4991176;28;98685;-72
2023/08/20 06:51:13;;;;;;;11.43;2.42;;;;;;;;;;4989005;28;98301;-72
2023/08/20 06:53:42;;;;;;;4.22;2.28;;;;;;;;;;4990993;28;100175;-71
2023/08/20 06:56:09;;;;;;;14.23;2.78;;;;;;;;;;4998973;28;98817;-71
2023/08/20 06:58:39;;;;;;;8.70;2.38;;;;;;;;;;5009409;28;99370;-71
2023/08/20 07:01:08;;;;;;;7.65;2.90;;;;;;;;;;5007359;28;99953;-71
2023/08/20 07:03:41;;;;;;;12.82;2.42;;;;;;;;;;4990489;28;98275;-72
2023/08/20 07:06:09;;;;;;;8.88;2.95;;;;;;;;;;4992988;28;98536;-72
2023/08/20 07:08:36;;;;;;;10.45;2.17;;;;;;;;;;4990292;28;98121;-72
2023/08/20 07:11:02;;;;;;;6.25;1.95;;;;;;;;;;4990579;28;98728;-72
2023/08/20 07:13:29;;;;;;;4.70;1.58;;;;;;;;;;5000640;28;100005;-73
2023/08/20 07:15:55;;;;;;;8.25;2.40;;;;;;;;;;5010396;28;98242;-72
2023/08/20 07:18:22;;;;;;;7.85;2.28;;;;;;;;;;5010665;28;98601;-71
2023/08/20 07:20:50;;;;;;;17.48;2.95;;;;;;;;;;5010440;28;100528;-72
2023/08/20 07:23:16;;;;;;;6.43;1.92;;;;;;;;;;5009209;28;98258;-72
2023/08/20 07:25:44;;;;;;;5.50;1.98;;;;;;;;;;4994303;28;99984;-72
2023/08/20 07:28:11;;;;;;;6.20;1.88;;;;;;;;;;4993233;28;98414;-72
2023/08/20 07:30:38;;;;;;;8.75;2.05;;;;;;;;;;4989611;28;99321;-72
2023/08/20 07:33:05;;;;;;;5.38;1.65;;;;;;;;;;4987154;28;99917;-72
2023/08/20 07:35:32;;;;;;;6.22;1.83;;;;;;;;;;4970405;28;98173;-72
2023/08/20 07:37:58;;;;;;;6.78;1.70;;;;;;;;;;4978871;28;98363;-72
2023/08/20 07:40:25;;;;;;;12.80;2.00;;;;;;;;;;4982021;28;99863;-73
2023/08/20 07:42:51;;;;;;;7.88;2.22;;;;;;;;;;4985571;28;98950;-72
2023/08/20 07:45:17;;;;;;;10.90;2.38;;;;;;;;;;4982966;28;100275;-72
2023/08/20 07:47:44;;;;;;;6.32;1.45;;;;;;;;;;4983064;28;98969;-72
2023/08/20 07:50:11;;;;;;;3.60;1.42;;;;;;;;;;4984277;28;99198;-72
2023/08/20 07:52:37;;;;;;;10.25;1.58;;;;;;;;;;4986912;28;98982;-73
2023/08/20 07:55:04;;;;;;;4.47;1.52;;;;;;;;;;4976823;28;98202;-71
2023/08/20 07:57:30;;;;;;;7.85;1.88;;;;;;;;;;4987969;28;99557;-72
2023/08/20 07:59:57;;;;;;;6.30;1.83;;;;;;;;;;4986081;28;99607;-72
2023/08/20 08:02:23;;;;;;;7.63;2.20;;;;;;;;;;4984213;28;98393;-72
2023/08/20 08:04:49;;;;;;;6.57;1.73;;;;;;;;;;4973857;28;98664;-71
2023/08/20 08:07:16;;;;;;;4.95;1.20;;;;;;;;;;4976043;28;98923;-72
2023/08/20 08:09:42;;;;;;;6.97;2.50;;;;;;;;;;4981699;28;98492;-71
2023/08/20 08:12:09;;;;;;;7.00;1.67;;;;;;;;;;4976420;28;99924;-71
2023/08/20 08:14:35;;;;;;;6.40;1.70;;;;;;;;;;4976311;28;100507;-71
2023/08/20 08:17:02;;;;;;;4.75;1.38;;;;;;;;;;4977541;28;99368;-71
2023/08/20 08:19:28;;;;;;;5.22;1.40;;;;;;;;;;4973314;28;100477;-72
2023/08/20 08:21:55;;;;;;;5.40;1.83;;;;;;;;;;4973440;28;98335;-72
2023/08/20 08:24:21;;;;;;;4.85;1.45;;;;;;;;;;4976153;28;99219;-72
2023/08/20 08:26:47;;;;;;;7.63;1.98;;;;;;;;;;4972861;28;99942;-71
2023/08/20 08:29:14;;;;;;;3.10;1.42;;;;;;;;;;4978843;28;98324;-71
2023/08/20 08:31:40;;;;;;;3.95;1.58;;;;;;;;;;4975385;28;99473;-72
2023/08/20 08:34:07;;;;;;;6.50;1.30;;;;;;;;;;4979844;28;98371;-70
2023/08/20 08:36:33;;;;;;;5.05;1.23;;;;;;;;;;4971673;28;99499;-72
2023/08/20 08:39:00;;;;;;;4.18;1.30;;;;;;;;;;4981839;28;99966;-71
2023/08/20 08:41:27;;;;;;;6.95;1.30;;;;;;;;;;4969825;28;98768;-71
2023/08/20 08:43:55;;;;;;;6.28;2.17;;;;;;;;;;4969673;28;101602;-71
2023/08/20 08:46:23;;;;;;;4.53;1.55;;;;;;;;;;4972673;28;100191;-72
2023/08/20 08:48:49;;;;;;;7.95;1.77;;;;;;;;;;4987972;28;98272;-72
2023/08/20 08:51:16;;;;;;;3.65;1.45;;;;;;;;;;4981589;28;98706;-72
2023/08/20 08:53:43;;;;;;;5.93;1.42;;;;;;;;;;4975735;28;100140;-72
2023/08/20 08:56:10;;;;;;;3.80;1.08;;;;;;;;;;4976484;28;99430;-73
2023/08/20 08:58:37;;;;;;;4.93;1.33;;;;;;;;;;4984356;28;100142;-72
2023/08/20 09:01:03;;;;;;;2.90;0.90;;;;;;;;;;4978179;28;98308;-71
2023/08/20 09:03:30;;;;;;;3.58;1.35;;;;;;;;;;4973397;28;99072;-72
2023/08/20 09:05:59;;;;;;;4.82;1.13;;;;;;;;;;4973093;28;100033;-72
2023/08/20 09:08:27;;;;;;;7.57;1.25;;;;;;;;;;4982767;28;98317;-71
2023/08/20 09:10:54;;;;;;;6.60;1.20;;;;;;;;;;4978158;28;99636;-71
2023/08/20 09:13:24;;;;;;;8.82;1.27;;;;;;;;;;4983028;28;99891;-70
2023/08/20 09:15:54;;;;;;;2.95;1.00;;;;;;;;;;4977847;28;100035;-71
2023/08/20 09:18:20;;;;;;;3.28;1.25;;;;;;;;;;4968604;28;99152;-73
2023/08/20 09:20:47;;;;;;;1.55;0.80;;;;;;;;;;4971251;28;98203;-72
2023/08/20 09:23:14;;;;;;;2.75;0.95;;;;;;;;;;4968923;28;99360;-70
2023/08/20 09:25:41;;;;;;;3.38;0.98;;;;;;;;;;4972846;28;98868;-71
2023/08/20 09:28:07;;;;;;;2.08;1.10;;;;;;;;;;4977897;28;98443;-71
2023/08/20 09:30:34;;;;;;;6.00;0.98;;;;;;;;;;4972821;28;99667;-71
2023/08/20 09:33:04;;;;;;;3.92;0.73;;;;;;;;;;4978171;28;100308;-70
2023/08/20 09:35:31;;;;;;;1.75;0.77;;;;;;;;;;4984486;28;100010;-72
2023/08/20 09:38:01;;;;;;;3.17;1.20;;;;;;;;;;4984739;28;99692;-71
2023/08/20 09:40:27;;;;;;;2.30;0.93;;;;;;;;;;4971250;28;98260;-72
2023/08/20 09:42:54;;;;;;;4.60;1.02;;;;;;;;;;4972476;28;100312;-70
2023/08/20 09:45:21;;;;;;;5.05;1.35;;;;;;;;;;4970725;28;99041;-72
2023/08/20 09:47:48;;;;;;;6.03;1.20;;;;;;;;;;4971520;28;99290;-71
2023/08/20 09:50:17;;;;;;;1.15;0.80;;;;;;;;;;4988293;28;99722;-71
2023/08/20 09:52:54;;;;;;;2.13;0.85;;;;;;;;;;4991986;28;99956;-70
2023/08/20 09:55:22;;;;;;;3.60;0.90;;;;;;;;;;4991040;28;98102;-72
2023/08/20 09:57:49;;;;;;;5.68;1.23;;;;;;;;;;4995065;28;98906;-71
2023/08/20 10:00:16;;;;;;;0.82;0.70;;;;;;;;;;4976113;28;98223;-72
2023/08/20 10:02:44;;;;;;;1.58;0.77;;;;;;;;;;4972338;28;98653;-70
2023/08/20 10:05:12;;;;;;;3.92;1.00;;;;;;;;;;4989773;28;99034;-71
2023/08/20 10:07:39;;;;;;;2.80;0.98;;;;;;;;;;4990900;28;98204;-71
2023/08/20 10:10:07;;;;;;;4.88;0.98;;;;;;;;;;4978010;28;100085;-70
2023/08/20 10:12:34;;;;;;;2.05;1.00;;;;;;;;;;4987899;28;100293;-71
2023/08/20 10:15:02;;;;;;;2.05;0.80;;;;;;;;;;4979026;28;99147;-71
2023/08/20 10:17:29;;;;;;;1.83;0.90;;;;;;;;;;4976804;28;98848;-72
2023/08/20 10:19:57;;;;;;;4.13;1.50;;;;;;;;;;4982330;28;99258;-70
2023/08/20 10:22:46;;;;;;;3.38;0.95;;;;;;;;;;4978565;28;98864;-70
2023/08/20 10:25:26;;;;;;;2.63;0.75;;;;;;;;;;4983061;28;98906;-72
2023/08/20 10:27:53;;;;;;;5.13;1.17;;;;;;;;;;4973797;28;99148;-69
2023/08/20 10:30:24;;;;;;;6.22;1.60;;;;;;;;;;4973404;28;98889;-71
2023/08/20 10:32:58;;;;;;;3.38;1.10;;;;;;;;;;4975831;28;99889;-71
2023/08/20 10:35:28;;;;;;;4.03;1.20;;;;;;;;;;4974124;28;98562;-70
2023/08/20 10:38:08;;;;;;;3.45;0.82;;;;;;;;;;4974163;28;98687;-71
2023/08/20 10:40:47;;;;;;;8.05;1.20;;;;;;;;;;4970597;28;99020;-70
2023/08/20 10:43:25;;;;;;;2.67;0.90;;;;;;;;;;4977760;28;99688;-71
2023/08/20 10:46:02;;;;;;;2.55;1.00;;;;;;;;;;4978422;28;99981;-71
2023/08/20 10:48:35;;;;;;;4.40;1.08;;;;;;;;;;4974071;28;99819;-71
2023/08/20 10:51:15;;;;;;;3.33;0.90;;;;;;;;;;4972118;28;99953;-70
2023/08/20 10:53:42;;;;;;;2.58;0.80;;;;;;;;;;4974287;28;102146;-72
2023/08/20 10:56:13;;;;;;;4.18;1.60;;;;;;;;;;4971931;28;98351;-70
2023/08/20 10:58:47;;;;;;;1.53;0.80;;;;;;;;;;4973698;28;100607;-72
2023/08/20 11:01:17;;;;;;;3.35;0.90;;;;;;;;;;4972997;28;100593;-71
2023/08/20 11:03:48;;;;;;;6.18;1.55;;;;;;;;;;4986702;28;99258;-73
2023/08/20 11:06:15;;;;;;;4.10;0.90;;;;;;;;;;4988103;28;100208;-73
2023/08/20 11:08:42;;;;;;;1.65;1.13;;;;;;;;;;4990302;28;98267;-70
2023/08/20 11:11:10;;;;;;;3.17;1.20;;;;;;;;;;4989922;28;99711;-71
2023/08/20 11:13:36;;;;;;;6.22;1.38;;;;;;;;;;4990224;28;101357;-71
2023/08/20 11:16:03;;;;;;;2.45;0.88;;;;;;;;;;4990425;28;98332;-70
2023/08/20 11:18:31;;;;;;;4.75;1.77;;;;;;;;;;4989535;28;99021;-71
2023/08/20 11:20:58;;;;;;;9.23;1.10;;;;;;;;;;4990484;28;99799;-71
2023/08/20 11:23:25;;;;;;;3.78;1.00;;;;;;;;;;4990572;28;98266;-71
2023/08/20 11:25:51;;;;;;;3.33;1.02;;;;;;;;;;4989804;28;98517;-71
2023/08/20 11:28:18;;;;;;;0.88;0.50;;;;;;;;;;4993327;28;98268;-72
2023/08/20 11:30:46;;;;;;;2.55;1.23;;;;;;;;;;4989491;28;99137;-72
2023/08/20 11:33:12;;;;;;;5.45;0.88;;;;;;;;;;4989124;28;100350;-70
2023/08/20 11:35:39;;;;;;;5.90;1.00;;;;;;;;;;4990395;28;98320;-70
2023/08/20 11:38:05;;;;;;;2.72;1.10;;;;;;;;;;4990507;28;99445;-70
2023/08/20 11:40:32;;;;;;;2.75;0.93;;;;;;;;;;4989089;28;99847;-71
2023/08/20 11:42:59;;;;;;;3.53;1.58;;;;;;;;;;4990402;28;98278;-71
2023/08/20 11:45:25;;;;;;;0.93;0.70;;;;;;;;;;4989638;28;98902;-70
2023/08/20 11:47:57;;;;;;;2.65;0.77;;;;;;;;;;4992851;28;99839;-70
2023/08/20 11:50:24;;;;;;;3.42;1.48;;;;;;;;;;4989890;28;99330;-70
2023/08/20 11:52:52;;;;;;;6.25;1.00;;;;;;;;;;4990255;28;98948;-71
2023/08/20 11:55:22;;;;;;;4.57;1.17;;;;;;;;;;4988013;28;98827;-70
2023/08/20 11:57:52;;;;;;;2.47;0.93;;;;;;;;;;4990046;28;99314;-71
2023/08/20 12:00:26;;;;;;;4.68;1.00;;;;;;;;;;4987954;28;100041;-71
2023/08/20 12:02:55;;;;;;;2.65;1.10;;;;;;;;;;4988387;28;98194;-71
2023/08/20 12:05:24;;;;;;;4.47;1.50;;;;;;;;;;4989891;28;99247;-71
2023/08/20 12:08:03;;;;;;;2.90;1.15;;;;;;;;;;4988887;28;99243;-70
2023/08/20 12:10:30;;;;;;;3.72;1.38;;;;;;;;;;4992713;28;98224;-71
2023/08/20 12:12:57;;;;;;;2.72;0.90;;;;;;;;;;4989225;28;99907;-71
2023/08/20 12:15:24;;;;;;;2.15;1.10;;;;;;;;;;4989085;28;98474;-71
2023/08/20 12:17:56;;;;;;;3.08;0.80;;;;;;;;;;4990886;28;98408;-71
2023/08/20 12:20:23;;;;;;;1.75;1.00;;;;;;;;;;4990457;28;100007;-72
2023/08/20 12:22:50;;;;;;;2.60;1.23;;;;;;;;;;4989546;28;98254;-72
2023/08/20 12:25:16;;;;;;;2.65;1.23;;;;;;;;;;4989298;28;99579;-70
2023/08/20 12:27:43;;;;;;;2.40;1.30;;;;;;;;;;4989789;28;100051;-70
2023/08/20 12:30:09;;;;;;;3.50;1.25;;;;;;;;;;4989319;28;98209;-70
2023/08/20 12:32:36;;;;;;;3.22;1.60;;;;;;;;;;4992750;28;100574;-71
2023/08/20 12:35:03;;;;;;;4.95;2.13;;;;;;;;;;4989563;28;98255;-70
2023/08/20 12:37:30;;;;;;;4.22;2.00;;;;;;;;;;4988478;28;98189;-71
2023/08/20 12:39:56;;;;;;;3.45;0.90;;;;;;;;;;4989559;28;99870;-70
2023/08/20 12:42:23;;;;;;;5.13;1.33;;;;;;;;;;4988465;28;98225;-70
2023/08/20 12:44:49;;;;;;;1.98;1.02;;;;;;;;;;4988298;28;98462;-71
2023/08/20 12:47:16;;;;;;;5.40;1.15;;;;;;;;;;4986347;28;99644;-70
2023/08/20 12:49:42;;;;;;;4.70;1.40;;;;;;;;;;4971484;28;98315;-71
2023/08/20 12:52:09;;;;;;;2.67;1.17;;;;;;;;;;4969656;28;99430;-71
2023/08/20 12:54:36;;;;;;;3.53;1.27;;;;;;;;;;4974823;28;99451;-71
2023/08/20 12:57:03;;;;;;;2.40;1.02;;;;;;;;;;4968617;28;99744;-70
2023/08/20 12:59:29;;;;;;;3.03;1.17;;;;;;;;;;4969174;28;100133;-70
2023/08/20 13:01:57;;;;;;;3.00;1.10;;;;;;;;;;4969838;28;98231;-71
2023/08/20 13:04:24;;;;;;;3.85;0.95;;;;;;;;;;4975836;28;99239;-70
2023/08/20 13:06:51;;;;;;;2.28;1.10;;;;;;;;;;4988969;28;99944;-70
2023/08/20 13:09:17;;;;;;;3.63;1.00;;;;;;;;;;4988062;28;98220;-72
2023/08/20 13:11:44;;;;;;;5.47;1.00;;;;;;;;;;4989197;28;99523;-70
2023/08/20 13:14:11;;;;;;;2.15;0.98;;;;;;;;;;4992322;28;100245;-71
2023/08/20 13:16:37;;;;;;;3.03;1.05;;;;;;;;;;4996160;28;98015;-70
2023/08/20 13:19:04;;;;;;;1.50;0.90;;;;;;;;;;4991881;28;100188;-70
2023/08/20 13:21:30;;;;;;;3.33;0.80;;;;;;;;;;4991882;28;98455;-70
2023/08/20 13:23:57;;;;;;;2.33;1.15;;;;;;;;;;4992717;28;99446;-70
2023/08/20 13:26:23;;;;;;;1.65;0.88;;;;;;;;;;4991719;28;100073;-71
2023/08/20 13:28:49;;;;;;;4.10;1.10;;;;;;;;;;4991987;28;98161;-70
2023/08/20 13:31:16;;;;;;;2.45;1.10;;;;;;;;;;4992162;28;98626;-71
2023/08/20 13:33:42;;;;;;;1.63;1.10;;;;;;;;;;4991042;28;99000;-70
2023/08/20 13:36:09;;;;;;;2.80;0.90;;;;;;;;;;4995502;28;98335;-70
2023/08/20 13:38:35;;;;;;;3.88;1.15;;;;;;;;;;4991293;28;99156;-71
2023/08/20 13:41:02;;;;;;;2.03;1.05;;;;;;;;;;4992770;28;98156;-70
2023/08/20 13:43:28;;;;;;;5.18;1.25;;;;;;;;;;4992123;28;98643;-71
2023/08/20 13:45:55;;;;;;;4.57;1.00;;;;;;;;;;4991679;28;99300;-69
2023/08/20 13:48:21;;;;;;;4.65;0.95;;;;;;;;;;4992304;28;98204;-70
2023/08/20 13:50:48;;;;;;;5.55;1.13;;;;;;;;;;4992640;28;99755;-69
2023/08/20 13:53:15;;;;;;;6.80;1.38;;;;;;;;;;4991068;28;100693;-72
2023/08/20 13:55:41;;;;;;;5.80;1.10;;;;;;;;;;4992366;28;98410;-71
2023/08/20 13:58:08;;;;;;;2.78;1.08;;;;;;;;;;4994123;28;98868;-71
2023/08/20 14:00:36;;;;;;;7.65;1.88;;;;;;;;;;4991021;28;98188;-71
2023/08/20 14:03:03;;;;;;;2.33;0.95;;;;;;;;;;4990589;28;98850;-70
2023/08/20 14:05:29;;;;;;;2.38;0.90;;;;;;;;;;4991843;28;99034;-70
2023/08/20 14:07:56;;;;;;;3.88;1.38;;;;;;;;;;4991679;28;98632;-71
2023/08/20 14:10:22;;;;;;;2.50;1.10;;;;;;;;;;4990842;28;99941;-71
2023/08/20 14:12:49;;;;;;;5.22;1.17;;;;;;;;;;4992047;28;99961;-71
2023/08/20 14:15:15;;;;;;;3.63;1.40;;;;;;;;;;4991305;28;98807;-71
2023/08/20 14:17:41;;;;;;;1.10;0.70;;;;;;;;;;4992194;28;98458;-71
2023/08/20 14:20:11;;;;;;;3.45;1.10;;;;;;;;;;4994553;28;100010;-71
2023/08/20 14:22:37;;;;;;;2.45;1.10;;;;;;;;;;4990436;28;98745;-71
2023/08/20 14:25:05;;;;;;;3.28;0.90;;;;;;;;;;4991061;28;98838;-70
2023/08/20 14:27:31;;;;;;;3.47;1.13;;;;;;;;;;4991594;28;98369;-71
2023/08/20 14:29:57;;;;;;;2.47;1.00;;;;;;;;;;4990768;28;99691;-71
2023/08/20 14:32:24;;;;;;;4.65;1.10;;;;;;;;;;4990817;28;99401;-71
2023/08/20 14:34:51;;;;;;;3.00;1.17;;;;;;;;;;4991367;28;98177;-70
2023/08/20 14:37:17;;;;;;;2.40;1.10;;;;;;;;;;4991387;28;99471;-71
2023/08/20 14:39:43;;;;;;;2.33;1.10;;;;;;;;;;4991615;28;100138;-71
2023/08/20 14:42:10;;;;;;;3.95;0.88;;;;;;;;;;4994191;28;98237;-71